Tuttle, Idaho
Current Conditions -  °F | °C
As of 12:53 PM on Friday 28 Nov 2014 (Local Time) from KJER Reporting Station
Scattered Clouds Scattered Clouds  
Wind Chill: 12°   Ceiling: Unl
Heat Index: 12°   Visibility: 10mi
Dew Point: -2°   Wind: 6mph
Humidity: 38%   Direction: 120°ESE
Pressure: 29.82"   Gusts: NA
Location:  43.0634°N, 114.867°W
Report Text: KJER 281953Z AUTO 12005KT 10SM SCT110 12/M02 A2982 RMK AO2 SLP086 T01171022
Loading
Personal Weather Stations






























Interactive Weather Map New forecast layout! Learn more

10-Day Weather Forecast

Advertisements
Track Severe Weather on mobile